sensor_id;sensor_type;location;lat;lon;timestamp;pressure;altitude;pressure_sealevel;temperature;humidity
68380;BME280;57711;53.196;19.638;2023-05-12T00:01:22;100852.15;;;13.09;32.61
68380;BME280;57711;53.196;19.638;2023-05-12T00:03:49;100849.15;;;13.08;32.79
68380;BME280;57711;53.196;19.638;2023-05-12T00:06:19;100850.73;;;13.07;32.74
68380;BME280;57711;53.196;19.638;2023-05-12T00:08:47;100849.23;;;13.05;32.69
68380;BME280;57711;53.196;19.638;2023-05-12T00:11:14;100851.64;;;13.04;32.97
68380;BME280;57711;53.196;19.638;2023-05-12T00:13:41;100851.81;;;13.03;32.98
68380;BME280;57711;53.196;19.638;2023-05-12T00:16:08;100851.03;;;13.01;32.84
68380;BME280;57711;53.196;19.638;2023-05-12T00:18:36;100849.39;;;12.99;32.91
68380;BME280;57711;53.196;19.638;2023-05-12T00:21:03;100852.49;;;12.97;33.11
68380;BME280;57711;53.196;19.638;2023-05-12T00:23:30;100849.52;;;12.96;32.97
68380;BME280;57711;53.196;19.638;2023-05-12T00:25:57;100850.21;;;12.94;33.06
68380;BME280;57711;53.196;19.638;2023-05-12T00:28:24;100848.55;;;12.93;33.06
68380;BME280;57711;53.196;19.638;2023-05-12T00:30:51;100850.64;;;12.91;32.99
68380;BME280;57711;53.196;19.638;2023-05-12T00:33:18;100849.62;;;12.91;33.18
68380;BME280;57711;53.196;19.638;2023-05-12T00:35:46;100844.73;;;12.89;33.11
68380;BME280;57711;53.196;19.638;2023-05-12T00:38:13;100845.02;;;12.85;33.02
68380;BME280;57711;53.196;19.638;2023-05-12T00:40:40;100853.22;;;12.82;33.14
68380;BME280;57711;53.196;19.638;2023-05-12T00:43:08;100851.52;;;12.79;33.25
68380;BME280;57711;53.196;19.638;2023-05-12T00:45:35;100854.10;;;12.77;33.17
68380;BME280;57711;53.196;19.638;2023-05-12T00:48:03;100858.84;;;12.75;33.30
68380;BME280;57711;53.196;19.638;2023-05-12T00:50:31;100854.95;;;12.74;33.29
68380;BME280;57711;53.196;19.638;2023-05-12T00:53:00;100856.25;;;12.71;33.43
68380;BME280;57711;53.196;19.638;2023-05-12T00:55:28;100858.07;;;12.69;33.45
68380;BME280;57711;53.196;19.638;2023-05-12T00:57:57;100859.79;;;12.68;33.42
68380;BME280;57711;53.196;19.638;2023-05-12T01:00:26;100863.09;;;12.65;33.34
68380;BME280;57711;53.196;19.638;2023-05-12T01:02:53;100863.53;;;12.63;33.54
68380;BME280;57711;53.196;19.638;2023-05-12T01:05:29;100864.91;;;12.61;33.48
68380;BME280;57711;53.196;19.638;2023-05-12T01:07:59;100861.33;;;12.59;33.45
68380;BME280;57711;53.196;19.638;2023-05-12T01:10:26;100865.86;;;12.57;33.61
68380;BME280;57711;53.196;19.638;2023-05-12T01:12:53;100861.92;;;12.56;33.70
68380;BME280;57711;53.196;19.638;2023-05-12T01:15:21;100862.09;;;12.54;33.68
68380;BME280;57711;53.196;19.638;2023-05-12T01:17:52;100861.23;;;12.52;33.62
68380;BME280;57711;53.196;19.638;2023-05-12T01:20:24;100863.70;;;12.50;33.79
68380;BME280;57711;53.196;19.638;2023-05-12T01:22:54;100861.95;;;12.48;33.66
68380;BME280;57711;53.196;19.638;2023-05-12T01:25:22;100864.40;;;12.46;33.69
68380;BME280;57711;53.196;19.638;2023-05-12T01:27:51;100863.61;;;12.45;33.79
68380;BME280;57711;53.196;19.638;2023-05-12T01:30:20;100863.81;;;12.43;33.84
68380;BME280;57711;53.196;19.638;2023-05-12T01:32:47;100868.52;;;12.41;33.88
68380;BME280;57711;53.196;19.638;2023-05-12T01:35:15;100872.52;;;12.39;33.87
68380;BME280;57711;53.196;19.638;2023-05-12T01:37:49;100870.24;;;12.36;33.96
68380;BME280;57711;53.196;19.638;2023-05-12T01:40:17;100873.40;;;12.35;33.91
68380;BME280;57711;53.196;19.638;2023-05-12T01:42:45;100874.72;;;12.34;33.88
68380;BME280;57711;53.196;19.638;2023-05-12T01:45:13;100875.62;;;12.32;33.97
68380;BME280;57711;53.196;19.638;2023-05-12T01:47:40;100875.58;;;12.31;33.98
68380;BME280;57711;53.196;19.638;2023-05-12T01:50:08;100878.08;;;12.29;33.92
68380;BME280;57711;53.196;19.638;2023-05-12T01:52:36;100879.70;;;12.29;34.02
68380;BME280;57711;53.196;19.638;2023-05-12T01:55:07;100878.42;;;12.27;34.01
68380;BME280;57711;53.196;19.638;2023-05-12T01:57:42;100882.05;;;12.25;34.19
68380;BME280;57711;53.196;19.638;2023-05-12T02:00:10;100881.45;;;12.23;33.95
68380;BME280;57711;53.196;19.638;2023-05-12T02:02:40;100880.92;;;12.21;33.99
68380;BME280;57711;53.196;19.638;2023-05-12T02:05:10;100886.08;;;12.20;34.34
68380;BME280;57711;53.196;19.638;2023-05-12T02:07:38;100884.96;;;12.19;34.12
68380;BME280;57711;53.196;19.638;2023-05-12T02:10:06;100883.16;;;12.16;34.11
68380;BME280;57711;53.196;19.638;2023-05-12T02:12:33;100883.79;;;12.16;34.25
68380;BME280;57711;53.196;19.638;2023-05-12T02:15:01;100883.34;;;12.14;34.18
68380;BME280;57711;53.196;19.638;2023-05-12T02:17:29;100883.48;;;12.13;34.39
68380;BME280;57711;53.196;19.638;2023-05-12T02:19:58;100880.77;;;12.11;34.29
68380;BME280;57711;53.196;19.638;2023-05-12T02:22:25;100883.61;;;12.09;34.41
68380;BME280;57711;53.196;19.638;2023-05-12T02:24:52;100885.41;;;12.07;34.31
68380;BME280;57711;53.196;19.638;2023-05-12T02:27:20;100888.83;;;12.05;34.51
68380;BME280;57711;53.196;19.638;2023-05-12T02:29:47;100890.05;;;12.05;34.39
68380;BME280;57711;53.196;19.638;2023-05-12T02:32:15;100888.89;;;12.04;34.34
68380;BME280;57711;53.196;19.638;2023-05-12T02:34:44;100889.52;;;12.03;34.64
68380;BME280;57711;53.196;19.638;2023-05-12T02:37:12;100888.12;;;12.03;34.45
68380;BME280;57711;53.196;19.638;2023-05-12T02:39:39;100889.64;;;12.02;34.54
68380;BME280;57711;53.196;19.638;2023-05-12T02:42:06;100895.23;;;12.00;34.65
68380;BME280;57711;53.196;19.638;2023-05-12T02:44:33;100890.47;;;11.99;34.59
68380;BME280;57711;53.196;19.638;2023-05-12T02:47:01;100890.89;;;11.98;34.58
68380;BME280;57711;53.196;19.638;2023-05-12T02:49:28;100896.63;;;11.97;34.67
68380;BME280;57711;53.196;19.638;2023-05-12T02:51:55;100897.17;;;11.97;34.63
68380;BME280;57711;53.196;19.638;2023-05-12T02:54:22;100897.88;;;11.95;34.61
68380;BME280;57711;53.196;19.638;2023-05-12T02:56:49;100900.18;;;11.93;34.65
68380;BME280;57711;53.196;19.638;2023-05-12T02:59:17;100897.92;;;11.92;34.70
68380;BME280;57711;53.196;19.638;2023-05-12T03:01:44;100897.13;;;11.90;34.79
68380;BME280;57711;53.196;19.638;2023-05-12T03:04:11;100899.81;;;11.91;34.76
68380;BME280;57711;53.196;19.638;2023-05-12T03:06:39;100902.05;;;11.90;34.91
68380;BME280;57711;53.196;19.638;2023-05-12T03:09:06;100900.59;;;11.88;34.73
68380;BME280;57711;53.196;19.638;2023-05-12T03:11:33;100902.01;;;11.86;34.90
68380;BME280;57711;53.196;19.638;2023-05-12T03:14:00;100899.11;;;11.84;34.85
68380;BME280;57711;53.196;19.638;2023-05-12T03:16:28;100898.58;;;11.84;34.79
68380;BME280;57711;53.196;19.638;2023-05-12T03:18:55;100900.37;;;11.82;34.84
68380;BME280;57711;53.196;19.638;2023-05-12T03:21:22;100898.07;;;11.81;35.13
68380;BME280;57711;53.196;19.638;2023-05-12T03:23:49;100899.17;;;11.83;35.04
68380;BME280;57711;53.196;19.638;2023-05-12T03:26:18;100895.45;;;11.84;35.15
68380;BME280;57711;53.196;19.638;2023-05-12T03:28:45;100895.26;;;11.87;34.95
68380;BME280;57711;53.196;19.638;2023-05-12T03:31:12;100894.75;;;11.86;35.00
68380;BME280;57711;53.196;19.638;2023-05-12T03:33:40;100894.84;;;11.87;35.08
68380;BME280;57711;53.196;19.638;2023-05-12T03:36:07;100897.62;;;11.86;35.06
68380;BME280;57711;53.196;19.638;2023-05-12T03:38:34;100902.98;;;11.87;35.08
68380;BME280;57711;53.196;19.638;2023-05-12T03:41:05;100900.30;;;11.87;35.10
68380;BME280;57711;53.196;19.638;2023-05-12T03:43:33;100901.84;;;11.86;35.06
68380;BME280;57711;53.196;19.638;2023-05-12T03:46:01;100904.48;;;11.85;35.22
68380;BME280;57711;53.196;19.638;2023-05-12T03:48:29;100906.63;;;11.85;35.17
68380;BME280;57711;53.196;19.638;2023-05-12T03:50:57;100911.20;;;11.84;35.11
68380;BME280;57711;53.196;19.638;2023-05-12T03:53:24;100910.42;;;11.83;35.26
68380;BME280;57711;53.196;19.638;2023-05-12T03:55:51;100916.98;;;11.82;35.36
68380;BME280;57711;53.196;19.638;2023-05-12T03:58:19;100918.02;;;11.83;35.18
68380;BME280;57711;53.196;19.638;2023-05-12T04:00:46;100921.54;;;11.82;35.31
68380;BME280;57711;53.196;19.638;2023-05-12T04:03:16;100923.51;;;11.81;35.43
68380;BME280;57711;53.196;19.638;2023-05-12T04:05:43;100926.81;;;11.80;35.50
68380;BME280;57711;53.196;19.638;2023-05-12T04:08:10;100932.54;;;11.81;35.30
68380;BME280;57711;53.196;19.638;2023-05-12T04:10:39;100928.64;;;11.82;35.38
68380;BME280;57711;53.196;19.638;2023-05-12T04:13:07;100931.08;;;11.83;35.48
68380;BME280;57711;53.196;19.638;2023-05-12T04:15:34;100936.41;;;11.84;35.45
68380;BME280;57711;53.196;19.638;2023-05-12T04:18:02;100932.75;;;11.85;35.48
68380;BME280;57711;53.196;19.638;2023-05-12T04:20:29;100936.39;;;11.87;35.49
68380;BME280;57711;53.196;19.638;2023-05-12T04:22:57;100932.25;;;11.88;35.67
68380;BME280;57711;53.196;19.638;2023-05-12T04:25:24;100934.34;;;11.89;35.65
68380;BME280;57711;53.196;19.638;2023-05-12T04:27:52;100940.54;;;11.92;35.61
68380;BME280;57711;53.196;19.638;2023-05-12T04:30:19;100938.58;;;11.93;35.71
68380;BME280;57711;53.196;19.638;2023-05-12T04:32:48;100943.35;;;11.95;35.72
68380;BME280;57711;53.196;19.638;2023-05-12T04:35:15;100942.34;;;11.96;35.83
68380;BME280;57711;53.196;19.638;2023-05-12T04:37:42;100945.75;;;11.98;35.59
68380;BME280;57711;53.196;19.638;2023-05-12T04:40:10;100943.77;;;12.01;35.81
68380;BME280;57711;53.196;19.638;2023-05-12T04:42:37;100944.99;;;12.03;35.81
68380;BME280;57711;53.196;19.638;2023-05-12T04:45:06;100947.14;;;12.06;35.85
68380;BME280;57711;53.196;19.638;2023-05-12T04:47:34;100947.67;;;12.08;35.90
68380;BME280;57711;53.196;19.638;2023-05-12T04:50:01;100948.97;;;12.10;35.74
68380;BME280;57711;53.196;19.638;2023-05-12T04:52:30;100948.00;;;12.13;35.85
68380;BME280;57711;53.196;19.638;2023-05-12T04:54:58;100951.11;;;12.17;35.98
68380;BME280;57711;53.196;19.638;2023-05-12T04:57:25;100950.58;;;12.21;35.86
68380;BME280;57711;53.196;19.638;2023-05-12T04:59:53;100956.30;;;12.24;35.75
68380;BME280;57711;53.196;19.638;2023-05-12T05:02:21;100953.69;;;12.27;35.87
68380;BME280;57711;53.196;19.638;2023-05-12T05:04:48;100957.41;;;12.30;36.09
68380;BME280;57711;53.196;19.638;2023-05-12T05:07:16;100954.17;;;12.34;36.02
68380;BME280;57711;53.196;19.638;2023-05-12T05:09:43;100959.85;;;12.39;36.17
68380;BME280;57711;53.196;19.638;2023-05-12T05:12:10;100959.63;;;12.44;36.23
68380;BME280;57711;53.196;19.638;2023-05-12T05:14:37;100960.06;;;12.50;36.17
68380;BME280;57711;53.196;19.638;2023-05-12T05:17:05;100962.52;;;12.55;35.99
68380;BME280;57711;53.196;19.638;2023-05-12T05:19:34;100962.81;;;12.60;36.03
68380;BME280;57711;53.196;19.638;2023-05-12T05:22:18;100958.21;;;12.67;36.07
68380;BME280;57711;53.196;19.638;2023-05-12T05:24:45;100958.63;;;12.75;36.23
68380;BME280;57711;53.196;19.638;2023-05-12T05:27:12;100964.36;;;12.84;36.13
68380;BME280;57711;53.196;19.638;2023-05-12T05:29:39;100962.77;;;12.94;36.14
68380;BME280;57711;53.196;19.638;2023-05-12T05:32:06;100962.43;;;13.04;36.16
68380;BME280;57711;53.196;19.638;2023-05-12T05:34:34;100962.54;;;13.15;36.37
68380;BME280;57711;53.196;19.638;2023-05-12T05:37:02;100964.47;;;13.24;36.39
68380;BME280;57711;53.196;19.638;2023-05-12T05:39:29;100967.35;;;13.35;36.13
68380;BME280;57711;53.196;19.638;2023-05-12T05:41:57;100966.65;;;13.47;36.22
68380;BME280;57711;53.196;19.638;2023-05-12T05:44:24;100963.67;;;13.62;36.40
68380;BME280;57711;53.196;19.638;2023-05-12T05:46:52;100966.04;;;13.75;36.38
68380;BME280;57711;53.196;19.638;2023-05-12T05:49:20;100964.70;;;13.90;36.44
68380;BME280;57711;53.196;19.638;2023-05-12T05:51:47;100965.64;;;14.06;36.39
68380;BME280;57711;53.196;19.638;2023-05-12T05:54:15;100968.52;;;14.22;36.51
68380;BME280;57711;53.196;19.638;2023-05-12T05:56:42;100967.39;;;14.38;36.43
68380;BME280;57711;53.196;19.638;2023-05-12T05:59:09;100966.45;;;14.54;36.40
68380;BME280;57711;53.196;19.638;2023-05-12T06:01:37;100968.99;;;14.69;36.45
68380;BME280;57711;53.196;19.638;2023-05-12T06:04:04;100968.39;;;14.85;36.40
68380;BME280;57711;53.196;19.638;2023-05-12T06:06:31;100967.34;;;15.00;36.25
68380;BME280;57711;53.196;19.638;2023-05-12T06:08:59;100968.23;;;15.11;36.35
68380;BME280;57711;53.196;19.638;2023-05-12T06:11:26;100972.14;;;15.25;36.23
68380;BME280;57711;53.196;19.638;2023-05-12T06:13:53;100972.45;;;15.41;36.18
68380;BME280;57711;53.196;19.638;2023-05-12T06:16:20;100971.36;;;15.56;36.37
68380;BME280;57711;53.196;19.638;2023-05-12T06:18:47;100975.30;;;15.67;36.16
68380;BME280;57711;53.196;19.638;2023-05-12T06:21:14;100971.55;;;15.81;36.23
68380;BME280;57711;53.196;19.638;2023-05-12T06:23:42;100975.09;;;15.95;36.29
68380;BME280;57711;53.196;19.638;2023-05-12T06:26:09;100975.23;;;16.08;36.19
68380;BME280;57711;53.196;19.638;2023-05-12T06:28:37;100971.48;;;16.22;36.18
68380;BME280;57711;53.196;19.638;2023-05-12T06:31:07;100977.02;;;16.34;36.15
68380;BME280;57711;53.196;19.638;2023-05-12T06:33:34;100974.52;;;16.46;36.22
68380;BME280;57711;53.196;19.638;2023-05-12T06:36:01;100975.16;;;16.57;36.24
68380;BME280;57711;53.196;19.638;2023-05-12T06:38:28;100976.52;;;16.68;36.07
68380;BME280;57711;53.196;19.638;2023-05-12T06:40:55;100980.70;;;16.75;36.19
68380;BME280;57711;53.196;19.638;2023-05-12T06:43:23;100979.88;;;16.84;36.13
68380;BME280;57711;53.196;19.638;2023-05-12T06:45:53;100987.92;;;16.93;36.13
68380;BME280;57711;53.196;19.638;2023-05-12T06:48:22;100983.43;;;17.03;36.21
68380;BME280;57711;53.196;19.638;2023-05-12T06:50:50;100986.67;;;17.14;36.17
68380;BME280;57711;53.196;19.638;2023-05-12T06:53:17;100986.86;;;17.26;36.17
68380;BME280;57711;53.196;19.638;2023-05-12T06:55:44;100987.78;;;17.40;36.26
68380;BME280;57711;53.196;19.638;2023-05-12T06:58:12;100988.21;;;17.51;36.15
68380;BME280;57711;53.196;19.638;2023-05-12T07:00:40;100988.68;;;17.64;36.15
68380;BME280;57711;53.196;19.638;2023-05-12T07:03:07;100988.83;;;17.78;36.19
68380;BME280;57711;53.196;19.638;2023-05-12T07:05:36;100987.21;;;17.91;36.01
68380;BME280;57711;53.196;19.638;2023-05-12T07:08:04;100988.17;;;18.01;36.10
68380;BME280;57711;53.196;19.638;2023-05-12T07:10:31;100988.88;;;18.08;36.11
68380;BME280;57711;53.196;19.638;2023-05-12T07:12:59;100989.33;;;18.14;35.78
68380;BME280;57711;53.196;19.638;2023-05-12T07:15:26;100991.60;;;18.15;35.78
68380;BME280;57711;53.196;19.638;2023-05-12T07:17:53;100988.00;;;18.19;35.97
68380;BME280;57711;53.196;19.638;2023-05-12T07:20:22;100987.26;;;18.26;35.88
68380;BME280;57711;53.196;19.638;2023-05-12T07:22:49;100992.17;;;18.33;35.93
68380;BME280;57711;53.196;19.638;2023-05-12T07:25:17;100989.20;;;18.40;35.68
68380;BME280;57711;53.196;19.638;2023-05-12T07:27:45;100990.23;;;18.49;35.61
68380;BME280;57711;53.196;19.638;2023-05-12T07:30:12;100992.23;;;18.56;35.70
68380;BME280;57711;53.196;19.638;2023-05-12T07:32:39;100992.42;;;18.60;35.67
68380;BME280;57711;53.196;19.638;2023-05-12T07:35:07;100989.58;;;18.61;35.51
68380;BME280;57711;53.196;19.638;2023-05-12T07:37:35;100994.70;;;18.65;35.63
68380;BME280;57711;53.196;19.638;2023-05-12T07:40:02;100992.90;;;18.76;35.77
68380;BME280;57711;53.196;19.638;2023-05-12T07:42:30;101002.86;;;18.88;35.56
68380;BME280;57711;53.196;19.638;2023-05-12T07:44:57;100993.67;;;19.00;35.56
68380;BME280;57711;53.196;19.638;2023-05-12T07:47:24;100999.46;;;19.11;35.63
68380;BME280;57711;53.196;19.638;2023-05-12T07:49:52;100999.45;;;19.15;35.63
68380;BME280;57711;53.196;19.638;2023-05-12T07:52:19;101008.31;;;19.20;35.43
68380;BME280;57711;53.196;19.638;2023-05-12T07:54:46;101000.50;;;19.17;35.30
68380;BME280;57711;53.196;19.638;2023-05-12T07:57:13;101003.99;;;19.16;35.19
68380;BME280;57711;53.196;19.638;2023-05-12T07:59:40;101002.50;;;19.18;35.33
68380;BME280;57711;53.196;19.638;2023-05-12T08:02:08;101002.52;;;19.20;35.28
68380;BME280;57711;53.196;19.638;2023-05-12T08:04:35;100998.82;;;19.29;35.25
68380;BME280;57711;53.196;19.638;2023-05-12T08:07:03;101003.02;;;19.37;35.17
68380;BME280;57711;53.196;19.638;2023-05-12T08:09:30;101000.66;;;19.45;35.39
68380;BME280;57711;53.196;19.638;2023-05-12T08:11:57;100997.34;;;19.55;35.30
68380;BME280;57711;53.196;19.638;2023-05-12T08:14:24;101003.09;;;19.54;35.01
68380;BME280;57711;53.196;19.638;2023-05-12T08:16:51;101001.02;;;19.53;35.03
68380;BME280;57711;53.196;19.638;2023-05-12T08:19:19;100998.52;;;19.54;35.05
68380;BME280;57711;53.196;19.638;2023-05-12T08:21:46;100998.68;;;19.54;34.94
68380;BME280;57711;53.196;19.638;2023-05-12T08:24:13;100994.10;;;19.62;35.15
68380;BME280;57711;53.196;19.638;2023-05-12T08:26:40;100997.91;;;19.72;34.85
68380;BME280;57711;53.196;19.638;2023-05-12T08:29:07;101000.35;;;19.80;34.95
68380;BME280;57711;53.196;19.638;2023-05-12T08:31:37;100995.82;;;19.85;34.90
68380;BME280;57711;53.196;19.638;2023-05-12T08:34:04;100990.75;;;19.88;34.95
68380;BME280;57711;53.196;19.638;2023-05-12T08:36:34;100998.80;;;19.94;34.86
68380;BME280;57711;53.196;19.638;2023-05-12T08:39:01;100992.69;;;20.03;34.65
68380;BME280;57711;53.196;19.638;2023-05-12T08:41:42;100993.46;;;20.07;34.85
68380;BME280;57711;53.196;19.638;2023-05-12T08:44:11;100987.42;;;20.15;34.81
68380;BME280;57711;53.196;19.638;2023-05-12T08:46:38;100988.76;;;20.05;34.47
68380;BME280;57711;53.196;19.638;2023-05-12T08:49:09;100986.66;;;19.96;34.69
68380;BME280;57711;53.196;19.638;2023-05-12T08:51:39;100992.22;;;19.97;34.56
68380;BME280;57711;53.196;19.638;2023-05-12T08:54:08;101006.48;;;19.99;34.40
68380;BME280;57711;53.196;19.638;2023-05-12T08:56:37;100994.65;;;20.05;34.34
68380;BME280;57711;53.196;19.638;2023-05-12T08:59:08;101006.07;;;20.15;34.41
68380;BME280;57711;53.196;19.638;2023-05-12T09:01:36;100997.95;;;20.20;33.99
68380;BME280;57711;53.196;19.638;2023-05-12T09:04:03;100991.86;;;20.14;34.05
68380;BME280;57711;53.196;19.638;2023-05-12T09:06:31;100997.60;;;20.14;34.11
68380;BME280;57711;53.196;19.638;2023-05-12T09:08:59;100995.65;;;20.07;33.90
68380;BME280;57711;53.196;19.638;2023-05-12T09:11:26;100999.73;;;20.05;34.00
68380;BME280;57711;53.196;19.638;2023-05-12T09:13:59;100999.58;;;20.13;33.93
68380;BME280;57711;53.196;19.638;2023-05-12T09:16:29;100997.97;;;20.22;33.97
68380;BME280;57711;53.196;19.638;2023-05-12T09:18:58;100990.30;;;20.26;33.79
68380;BME280;57711;53.196;19.638;2023-05-12T09:21:26;100982.36;;;20.25;33.62
68380;BME280;57711;53.196;19.638;2023-05-12T09:23:59;100986.60;;;20.25;33.79
68380;BME280;57711;53.196;19.638;2023-05-12T09:26:27;100991.36;;;20.22;33.67
68380;BME280;57711;53.196;19.638;2023-05-12T09:29:03;100983.70;;;20.20;33.73
68380;BME280;57711;53.196;19.638;2023-05-12T09:31:34;100974.48;;;20.32;33.81
68380;BME280;57711;53.196;19.638;2023-05-12T09:34:06;100976.83;;;20.45;33.70
68380;BME280;57711;53.196;19.638;2023-05-12T09:36:34;100985.70;;;20.59;33.78
68380;BME280;57711;53.196;19.638;2023-05-12T09:39:03;100975.23;;;20.68;33.67
68380;BME280;57711;53.196;19.638;2023-05-12T09:41:41;100975.96;;;20.79;33.69
68380;BME280;57711;53.196;19.638;2023-05-12T09:44:09;100984.56;;;20.88;33.73
68380;BME280;57711;53.196;19.638;2023-05-12T09:46:40;100975.11;;;20.94;33.44
68380;BME280;57711;53.196;19.638;2023-05-12T09:49:07;100972.89;;;21.02;33.31
68380;BME280;57711;53.196;19.638;2023-05-12T09:51:34;100976.44;;;21.12;33.47
68380;BME280;57711;53.196;19.638;2023-05-12T09:54:02;100968.59;;;21.21;33.43
68380;BME280;57711;53.196;19.638;2023-05-12T09:56:35;100975.12;;;21.26;33.38
68380;BME280;57711;53.196;19.638;2023-05-12T09:59:04;100980.27;;;21.33;33.44
68380;BME280;57711;53.196;19.638;2023-05-12T10:01:31;100971.20;;;21.43;33.36
68380;BME280;57711;53.196;19.638;2023-05-12T10:03:59;100966.23;;;21.53;33.41
68380;BME280;57711;53.196;19.638;2023-05-12T10:06:36;100973.00;;;21.61;33.39
68380;BME280;57711;53.196;19.638;2023-05-12T10:09:27;100971.13;;;21.67;33.32
68380;BME280;57711;53.196;19.638;2023-05-12T10:11:58;100974.41;;;21.75;33.07
68380;BME280;57711;53.196;19.638;2023-05-12T10:14:25;100976.30;;;21.73;32.99
68380;BME280;57711;53.196;19.638;2023-05-12T10:16:53;100968.89;;;21.78;33.01
68380;BME280;57711;53.196;19.638;2023-05-12T10:19:20;100968.94;;;21.83;32.85
68380;BME280;57711;53.196;19.638;2023-05-12T10:21:48;100960.77;;;21.85;32.75
68380;BME280;57711;53.196;19.638;2023-05-12T10:24:16;100954.02;;;21.86;32.83
68380;BME280;57711;53.196;19.638;2023-05-12T10:26:44;100949.00;;;21.88;32.80
68380;BME280;57711;53.196;19.638;2023-05-12T10:29:11;100953.60;;;21.90;32.70
68380;BME280;57711;53.196;19.638;2023-05-12T10:31:39;100966.02;;;21.93;32.76
68380;BME280;57711;53.196;19.638;2023-05-12T10:34:15;100974.34;;;21.93;32.67
68380;BME280;57711;53.196;19.638;2023-05-12T10:36:46;100961.09;;;21.94;32.46
68380;BME280;57711;53.196;19.638;2023-05-12T10:39:15;100957.86;;;21.88;32.30
68380;BME280;57711;53.196;19.638;2023-05-12T10:41:42;100955.86;;;21.66;32.13
68380;BME280;57711;53.196;19.638;2023-05-12T10:44:09;100953.98;;;21.45;32.21
68380;BME280;57711;53.196;19.638;2023-05-12T10:46:37;100949.16;;;21.42;32.29
68380;BME280;57711;53.196;19.638;2023-05-12T10:49:08;100942.73;;;21.47;32.36
68380;BME280;57711;53.196;19.638;2023-05-12T10:54:06;100950.80;;;21.62;32.20
68380;BME280;57711;53.196;19.638;2023-05-12T10:59:07;100952.79;;;21.84;32.10
68380;BME280;57711;53.196;19.638;2023-05-12T11:01:38;100953.90;;;21.94;31.94
68380;BME280;57711;53.196;19.638;2023-05-12T11:04:11;100942.46;;;21.96;32.13
68380;BME280;57711;53.196;19.638;2023-05-12T11:06:39;100941.89;;;21.99;31.98
68380;BME280;57711;53.196;19.638;2023-05-12T11:09:08;100945.40;;;22.09;32.01
68380;BME280;57711;53.196;19.638;2023-05-12T11:11:39;100943.98;;;22.19;31.80
68380;BME280;57711;53.196;19.638;2023-05-12T11:14:07;100941.56;;;22.17;31.72
68380;BME280;57711;53.196;19.638;2023-05-12T11:16:41;100935.32;;;22.20;31.59
68380;BME280;57711;53.196;19.638;2023-05-12T11:19:09;100931.78;;;22.28;31.68
68380;BME280;57711;53.196;19.638;2023-05-12T11:21:37;100929.81;;;22.37;31.58
68380;BME280;57711;53.196;19.638;2023-05-12T11:24:04;100927.97;;;22.45;31.43
68380;BME280;57711;53.196;19.638;2023-05-12T11:26:32;100935.07;;;22.50;31.35
68380;BME280;57711;53.196;19.638;2023-05-12T11:29:02;100935.77;;;22.47;31.34
68380;BME280;57711;53.196;19.638;2023-05-12T11:31:29;100942.98;;;22.55;31.47
68380;BME280;57711;53.196;19.638;2023-05-12T11:34:04;100923.34;;;22.60;31.28
68380;BME280;57711;53.196;19.638;2023-05-12T11:36:40;100931.61;;;22.68;31.27
68380;BME280;57711;53.196;19.638;2023-05-12T11:39:18;100927.42;;;22.72;31.25
68380;BME280;57711;53.196;19.638;2023-05-12T11:41:47;100919.89;;;22.76;31.26
68380;BME280;57711;53.196;19.638;2023-05-12T11:44:22;100919.34;;;22.83;31.16
68380;BME280;57711;53.196;19.638;2023-05-12T11:47:12;100926.23;;;22.84;31.04
68380;BME280;57711;53.196;19.638;2023-05-12T11:49:47;100917.44;;;22.86;31.10
68380;BME280;57711;53.196;19.638;2023-05-12T11:52:16;100920.11;;;22.88;30.96
68380;BME280;57711;53.196;19.638;2023-05-12T11:54:58;100925.25;;;22.90;30.94
68380;BME280;57711;53.196;19.638;2023-05-12T11:57:33;100935.70;;;22.90;30.88
68380;BME280;57711;53.196;19.638;2023-05-12T12:00:06;100921.11;;;22.86;30.76
68380;BME280;57711;53.196;19.638;2023-05-12T12:02:34;100926.35;;;22.83;30.78
68380;BME280;57711;53.196;19.638;2023-05-12T12:05:03;100931.23;;;22.74;30.60
68380;BME280;57711;53.196;19.638;2023-05-12T12:07:35;100925.63;;;22.70;30.54
68380;BME280;57711;53.196;19.638;2023-05-12T12:12:40;100936.53;;;22.51;30.40
68380;BME280;57711;53.196;19.638;2023-05-12T12:15:08;100930.42;;;22.44;30.50
68380;BME280;57711;53.196;19.638;2023-05-12T12:17:36;100919.87;;;22.43;30.48
68380;BME280;57711;53.196;19.638;2023-05-12T12:20:05;100916.86;;;22.44;30.45
68380;BME280;57711;53.196;19.638;2023-05-12T12:22:32;100915.44;;;22.46;30.41
68380;BME280;57711;53.196;19.638;2023-05-12T12:25:01;100930.66;;;22.45;30.28
68380;BME280;57711;53.196;19.638;2023-05-12T12:27:28;100909.15;;;22.42;30.29
68380;BME280;57711;53.196;19.638;2023-05-12T12:29:55;100902.28;;;22.40;30.26
68380;BME280;57711;53.196;19.638;2023-05-12T12:32:22;100922.29;;;22.38;30.11
68380;BME280;57711;53.196;19.638;2023-05-12T12:34:49;100918.66;;;22.32;30.10
68380;BME280;57711;53.196;19.638;2023-05-12T12:37:17;100919.88;;;22.24;29.95
68380;BME280;57711;53.196;19.638;2023-05-12T12:39:44;100913.38;;;22.20;29.95
68380;BME280;57711;53.196;19.638;2023-05-12T12:42:13;100914.92;;;22.21;30.09
68380;BME280;57711;53.196;19.638;2023-05-12T12:44:41;100908.39;;;22.26;29.97
68380;BME280;57711;53.196;19.638;2023-05-12T12:47:09;100915.77;;;22.26;29.93
68380;BME280;57711;53.196;19.638;2023-05-12T12:49:36;100902.27;;;22.29;29.82
68380;BME280;57711;53.196;19.638;2023-05-12T12:52:04;100909.00;;;22.31;29.79
68380;BME280;57711;53.196;19.638;2023-05-12T12:54:31;100915.67;;;22.27;29.59